sensor_id;sensor_type;location;lat;lon;timestamp;P1;durP1;ratioP1;P2;durP2;ratioP2
8656;SDS011;4366;50.764;7.184;2023-02-03T00:03:30;4.20;;;3.80;;
8656;SDS011;4366;50.764;7.184;2023-02-03T00:08:32;4.17;;;3.80;;
8656;SDS011;4366;50.764;7.184;2023-02-03T00:13:33;3.77;;;3.40;;
8656;SDS011;4366;50.764;7.184;2023-02-03T00:18:35;3.83;;;3.43;;
8656;SDS011;4366;50.764;7.184;2023-02-03T00:23:37;7.63;;;3.50;;
8656;SDS011;4366;50.764;7.184;2023-02-03T00:28:39;5.27;;;3.27;;
8656;SDS011;4366;50.764;7.184;2023-02-03T00:33:40;4.90;;;3.43;;
8656;SDS011;4366;50.764;7.184;2023-02-03T00:38:42;3.40;;;3.10;;
8656;SDS011;4366;50.764;7.184;2023-02-03T00:43:44;4.53;;;3.17;;
8656;SDS011;4366;50.764;7.184;2023-02-03T00:48:45;4.87;;;3.00;;
8656;SDS011;4366;50.764;7.184;2023-02-03T00:53:47;3.33;;;3.00;;
8656;SDS011;4366;50.764;7.184;2023-02-03T00:58:50;4.90;;;3.33;;
8656;SDS011;4366;50.764;7.184;2023-02-03T01:03:53;6.57;;;2.97;;
8656;SDS011;4366;50.764;7.184;2023-02-03T01:08:56;3.17;;;2.97;;
8656;SDS011;4366;50.764;7.184;2023-02-03T01:13:58;4.47;;;3.17;;
8656;SDS011;4366;50.764;7.184;2023-02-03T01:19:01;3.77;;;2.70;;
8656;SDS011;4366;50.764;7.184;2023-02-03T01:24:03;4.47;;;2.70;;
8656;SDS011;4366;50.764;7.184;2023-02-03T01:29:05;2.80;;;2.43;;
8656;SDS011;4366;50.764;7.184;2023-02-03T01:34:11;4.63;;;2.33;;
8656;SDS011;4366;50.764;7.184;2023-02-03T01:39:14;3.53;;;2.30;;
8656;SDS011;4366;50.764;7.184;2023-02-03T01:44:35;2.57;;;2.27;;
8656;SDS011;4366;50.764;7.184;2023-02-03T01:49:41;3.13;;;2.30;;
8656;SDS011;4366;50.764;7.184;2023-02-03T01:54:49;4.53;;;2.53;;
8656;SDS011;4366;50.764;7.184;2023-02-03T01:59:53;4.77;;;2.20;;
8656;SDS011;4366;50.764;7.184;2023-02-03T02:04:59;2.40;;;2.20;;
8656;SDS011;4366;50.764;7.184;2023-02-03T02:10:04;3.63;;;2.17;;
8656;SDS011;4366;50.764;7.184;2023-02-03T02:15:07;4.07;;;2.17;;
8656;SDS011;4366;50.764;7.184;2023-02-03T02:25:41;3.13;;;2.50;;
8656;SDS011;4366;50.764;7.184;2023-02-03T02:30:59;2.13;;;1.93;;
8656;SDS011;4366;50.764;7.184;2023-02-03T02:36:36;4.00;;;2.20;;
8656;SDS011;4366;50.764;7.184;2023-02-03T02:47:25;2.93;;;2.30;;
8656;SDS011;4366;50.764;7.184;2023-02-03T02:52:27;3.10;;;2.10;;
8656;SDS011;4366;50.764;7.184;2023-02-03T02:57:31;2.57;;;2.00;;
8656;SDS011;4366;50.764;7.184;2023-02-03T03:02:35;4.17;;;2.43;;
8656;SDS011;4366;50.764;7.184;2023-02-03T03:07:40;3.37;;;2.20;;
8656;SDS011;4366;50.764;7.184;2023-02-03T03:12:52;2.20;;;2.10;;
8656;SDS011;4366;50.764;7.184;2023-02-03T03:18:00;2.00;;;1.90;;
8656;SDS011;4366;50.764;7.184;2023-02-03T03:23:06;2.10;;;1.93;;
8656;SDS011;4366;50.764;7.184;2023-02-03T03:28:16;2.23;;;2.03;;
8656;SDS011;4366;50.764;7.184;2023-02-03T03:33:24;2.10;;;2.00;;
8656;SDS011;4366;50.764;7.184;2023-02-03T03:38:39;2.17;;;1.97;;
8656;SDS011;4366;50.764;7.184;2023-02-03T03:43:42;2.63;;;2.00;;
8656;SDS011;4366;50.764;7.184;2023-02-03T03:53:49;1.90;;;1.80;;
8656;SDS011;4366;50.764;7.184;2023-02-03T03:58:52;3.80;;;2.30;;
8656;SDS011;4366;50.764;7.184;2023-02-03T04:03:55;3.07;;;2.33;;
8656;SDS011;4366;50.764;7.184;2023-02-03T04:09:00;3.77;;;2.10;;
8656;SDS011;4366;50.764;7.184;2023-02-03T04:14:02;2.80;;;2.07;;
8656;SDS011;4366;50.764;7.184;2023-02-03T04:19:04;2.70;;;2.13;;
8656;SDS011;4366;50.764;7.184;2023-02-03T04:24:08;2.00;;;1.90;;
8656;SDS011;4366;50.764;7.184;2023-02-03T04:29:10;2.27;;;2.07;;
8656;SDS011;4366;50.764;7.184;2023-02-03T04:34:12;2.50;;;1.90;;
8656;SDS011;4366;50.764;7.184;2023-02-03T04:39:13;4.03;;;1.93;;
8656;SDS011;4366;50.764;7.184;2023-02-03T04:44:22;3.27;;;2.20;;
8656;SDS011;4366;50.764;7.184;2023-02-03T04:49:23;3.00;;;2.10;;
8656;SDS011;4366;50.764;7.184;2023-02-03T04:54:25;4.87;;;2.20;;
8656;SDS011;4366;50.764;7.184;2023-02-03T04:59:27;5.67;;;2.10;;
8656;SDS011;4366;50.764;7.184;2023-02-03T05:04:29;2.50;;;1.90;;
8656;SDS011;4366;50.764;7.184;2023-02-03T05:09:30;3.00;;;1.90;;
8656;SDS011;4366;50.764;7.184;2023-02-03T05:14:32;4.93;;;2.10;;
8656;SDS011;4366;50.764;7.184;2023-02-03T05:19:34;3.73;;;1.93;;
8656;SDS011;4366;50.764;7.184;2023-02-03T05:24:36;2.20;;;1.70;;
8656;SDS011;4366;50.764;7.184;2023-02-03T05:29:38;2.60;;;1.87;;
8656;SDS011;4366;50.764;7.184;2023-02-03T05:34:39;2.10;;;1.77;;
8656;SDS011;4366;50.764;7.184;2023-02-03T05:39:42;2.17;;;1.60;;
8656;SDS011;4366;50.764;7.184;2023-02-03T05:44:44;2.40;;;1.70;;
8656;SDS011;4366;50.764;7.184;2023-02-03T05:49:45;2.03;;;1.63;;
8656;SDS011;4366;50.764;7.184;2023-02-03T05:54:47;3.30;;;2.10;;
8656;SDS011;4366;50.764;7.184;2023-02-03T05:59:49;3.30;;;1.63;;
8656;SDS011;4366;50.764;7.184;2023-02-03T06:04:50;1.70;;;1.60;;
8656;SDS011;4366;50.764;7.184;2023-02-03T06:09:52;3.13;;;1.97;;
8656;SDS011;4366;50.764;7.184;2023-02-03T06:14:54;2.50;;;2.07;;
8656;SDS011;4366;50.764;7.184;2023-02-03T06:19:55;1.70;;;1.47;;
8656;SDS011;4366;50.764;7.184;2023-02-03T06:24:57;5.03;;;1.70;;
8656;SDS011;4366;50.764;7.184;2023-02-03T06:29:59;3.40;;;1.40;;
8656;SDS011;4366;50.764;7.184;2023-02-03T06:35:02;6.73;;;1.80;;
8656;SDS011;4366;50.764;7.184;2023-02-03T06:40:05;1.73;;;1.50;;
8656;SDS011;4366;50.764;7.184;2023-02-03T06:45:08;2.40;;;1.40;;
8656;SDS011;4366;50.764;7.184;2023-02-03T06:50:10;2.97;;;1.70;;
8656;SDS011;4366;50.764;7.184;2023-02-03T06:55:14;2.57;;;1.63;;
8656;SDS011;4366;50.764;7.184;2023-02-03T07:00:16;2.23;;;1.50;;
8656;SDS011;4366;50.764;7.184;2023-02-03T07:05:20;2.43;;;1.50;;
8656;SDS011;4366;50.764;7.184;2023-02-03T07:10:28;2.67;;;1.53;;
8656;SDS011;4366;50.764;7.184;2023-02-03T07:15:30;2.23;;;1.60;;
8656;SDS011;4366;50.764;7.184;2023-02-03T07:20:32;1.80;;;1.50;;
8656;SDS011;4366;50.764;7.184;2023-02-03T07:25:33;2.93;;;1.70;;
8656;SDS011;4366;50.764;7.184;2023-02-03T07:35:52;3.23;;;1.50;;
8656;SDS011;4366;50.764;7.184;2023-02-03T07:40:58;2.23;;;1.20;;
8656;SDS011;4366;50.764;7.184;2023-02-03T07:46:00;1.43;;;1.30;;
8656;SDS011;4366;50.764;7.184;2023-02-03T07:51:02;2.20;;;1.40;;
8656;SDS011;4366;50.764;7.184;2023-02-03T07:56:04;3.00;;;1.40;;
8656;SDS011;4366;50.764;7.184;2023-02-03T08:01:12;4.53;;;2.33;;
8656;SDS011;4366;50.764;7.184;2023-02-03T08:06:16;2.00;;;1.40;;
8656;SDS011;4366;50.764;7.184;2023-02-03T08:11:19;2.10;;;1.30;;
8656;SDS011;4366;50.764;7.184;2023-02-03T08:16:20;2.07;;;1.47;;
8656;SDS011;4366;50.764;7.184;2023-02-03T08:21:22;2.37;;;1.27;;
8656;SDS011;4366;50.764;7.184;2023-02-03T08:26:24;2.40;;;1.50;;
8656;SDS011;4366;50.764;7.184;2023-02-03T08:31:25;3.07;;;1.60;;
8656;SDS011;4366;50.764;7.184;2023-02-03T08:36:27;1.37;;;1.10;;
8656;SDS011;4366;50.764;7.184;2023-02-03T08:41:29;1.80;;;1.20;;
8656;SDS011;4366;50.764;7.184;2023-02-03T08:46:31;1.50;;;1.40;;
8656;SDS011;4366;50.764;7.184;2023-02-03T08:51:33;1.20;;;1.10;;
8656;SDS011;4366;50.764;7.184;2023-02-03T08:56:35;2.53;;;1.20;;
8656;SDS011;4366;50.764;7.184;2023-02-03T09:01:37;3.07;;;1.30;;
8656;SDS011;4366;50.764;7.184;2023-02-03T09:06:41;2.30;;;1.30;;
8656;SDS011;4366;50.764;7.184;2023-02-03T09:11:43;2.57;;;1.43;;
8656;SDS011;4366;50.764;7.184;2023-02-03T09:16:45;1.90;;;1.30;;
8656;SDS011;4366;50.764;7.184;2023-02-03T09:21:47;2.50;;;1.23;;
8656;SDS011;4366;50.764;7.184;2023-02-03T09:26:49;2.20;;;1.60;;
8656;SDS011;4366;50.764;7.184;2023-02-03T09:31:51;1.37;;;1.27;;
8656;SDS011;4366;50.764;7.184;2023-02-03T09:36:54;2.87;;;1.43;;
8656;SDS011;4366;50.764;7.184;2023-02-03T09:42:05;1.57;;;1.30;;
8656;SDS011;4366;50.764;7.184;2023-02-03T09:47:15;1.30;;;1.30;;
8656;SDS011;4366;50.764;7.184;2023-02-03T09:52:29;2.70;;;1.60;;
8656;SDS011;4366;50.764;7.184;2023-02-03T09:57:36;1.83;;;1.30;;
8656;SDS011;4366;50.764;7.184;2023-02-03T10:02:50;1.93;;;1.43;;
8656;SDS011;4366;50.764;7.184;2023-02-03T10:13:23;1.43;;;1.33;;
8656;SDS011;4366;50.764;7.184;2023-02-03T10:18:35;1.67;;;1.57;;
8656;SDS011;4366;50.764;7.184;2023-02-03T10:23:51;2.73;;;1.60;;
8656;SDS011;4366;50.764;7.184;2023-02-03T10:28:56;1.53;;;1.43;;
8656;SDS011;4366;50.764;7.184;2023-02-03T10:33:59;2.70;;;1.63;;
8656;SDS011;4366;50.764;7.184;2023-02-03T10:44:58;1.40;;;1.40;;
8656;SDS011;4366;50.764;7.184;2023-02-03T10:50:03;1.60;;;1.50;;
8656;SDS011;4366;50.764;7.184;2023-02-03T10:55:27;1.70;;;1.60;;
8656;SDS011;4366;50.764;7.184;2023-02-03T11:00:31;8.00;;;1.60;;
8656;SDS011;4366;50.764;7.184;2023-02-03T11:05:34;1.73;;;1.50;;
8656;SDS011;4366;50.764;7.184;2023-02-03T11:10:37;1.67;;;1.40;;
8656;SDS011;4366;50.764;7.184;2023-02-03T11:20:51;2.50;;;1.43;;
8656;SDS011;4366;50.764;7.184;2023-02-03T11:25:53;2.73;;;1.50;;
8656;SDS011;4366;50.764;7.184;2023-02-03T11:30:55;1.60;;;1.50;;
8656;SDS011;4366;50.764;7.184;2023-02-03T11:35:58;2.33;;;1.63;;
8656;SDS011;4366;50.764;7.184;2023-02-03T11:41:02;1.87;;;1.77;;
8656;SDS011;4366;50.764;7.184;2023-02-03T11:46:04;1.90;;;1.80;;
8656;SDS011;4366;50.764;7.184;2023-02-03T11:56:53;2.00;;;1.90;;
8656;SDS011;4366;50.764;7.184;2023-02-03T12:07:45;2.40;;;2.20;;
8656;SDS011;4366;50.764;7.184;2023-02-03T12:12:51;2.33;;;2.13;;
8656;SDS011;4366;50.764;7.184;2023-02-03T12:28:44;2.70;;;2.50;;
8656;SDS011;4366;50.764;7.184;2023-02-03T12:33:52;2.70;;;2.50;;
8656;SDS011;4366;50.764;7.184;2023-02-03T12:38:58;3.27;;;2.80;;
8656;SDS011;4366;50.764;7.184;2023-02-03T12:44:04;3.40;;;2.90;;
8656;SDS011;4366;50.764;7.184;2023-02-03T12:49:30;3.53;;;3.23;;
8656;SDS011;4366;50.764;7.184;2023-02-03T13:05:41;4.33;;;3.30;;
8656;SDS011;4366;50.764;7.184;2023-02-03T13:10:47;6.87;;;3.47;;
8656;SDS011;4366;50.764;7.184;2023-02-03T13:15:50;3.93;;;3.53;;
8656;SDS011;4366;50.764;7.184;2023-02-03T13:20:54;4.67;;;3.50;;
8656;SDS011;4366;50.764;7.184;2023-02-03T13:41:50;5.07;;;4.53;;
8656;SDS011;4366;50.764;7.184;2023-02-03T13:46:57;6.93;;;4.83;;
8656;SDS011;4366;50.764;7.184;2023-02-03T13:51:59;8.87;;;4.70;;
8656;SDS011;4366;50.764;7.184;2023-02-03T13:57:02;7.73;;;4.80;;
8656;SDS011;4366;50.764;7.184;2023-02-03T14:22:35;6.00;;;5.50;;
8656;SDS011;4366;50.764;7.184;2023-02-03T14:27:39;8.10;;;5.67;;
8656;SDS011;4366;50.764;7.184;2023-02-03T14:32:51;7.50;;;5.60;;
8656;SDS011;4366;50.764;7.184;2023-02-03T14:37:56;6.90;;;5.57;;
8656;SDS011;4366;50.764;7.184;2023-02-03T14:48:51;7.73;;;6.20;;
8656;SDS011;4366;50.764;7.184;2023-02-03T14:53:59;8.53;;;6.00;;
8656;SDS011;4366;50.764;7.184;2023-02-03T14:59:20;6.47;;;5.73;;
8656;SDS011;4366;50.764;7.184;2023-02-03T15:04:23;6.47;;;5.87;;
8656;SDS011;4366;50.764;7.184;2023-02-03T15:09:30;6.20;;;5.30;;
8656;SDS011;4366;50.764;7.184;2023-02-03T15:14:33;7.30;;;6.03;;
8656;SDS011;4366;50.764;7.184;2023-02-03T15:19:37;7.33;;;5.83;;
8656;SDS011;4366;50.764;7.184;2023-02-03T15:24:40;7.23;;;6.53;;
8656;SDS011;4366;50.764;7.184;2023-02-03T15:29:43;5.43;;;4.93;;
8656;SDS011;4366;50.764;7.184;2023-02-03T15:34:46;6.47;;;5.20;;
8656;SDS011;4366;50.764;7.184;2023-02-03T15:39:59;6.17;;;5.60;;
8656;SDS011;4366;50.764;7.184;2023-02-03T15:45:05;7.93;;;5.77;;
8656;SDS011;4366;50.764;7.184;2023-02-03T15:55:37;10.37;;;5.50;;
8656;SDS011;4366;50.764;7.184;2023-02-03T16:00:42;9.20;;;5.60;;
8656;SDS011;4366;50.764;7.184;2023-02-03T16:06:18;5.67;;;5.17;;
8656;SDS011;4366;50.764;7.184;2023-02-03T16:16:39;5.67;;;4.83;;
8656;SDS011;4366;50.764;7.184;2023-02-03T16:21:56;6.33;;;5.70;;
8656;SDS011;4366;50.764;7.184;2023-02-03T16:27:19;8.40;;;5.77;;
8656;SDS011;4366;50.764;7.184;2023-02-03T16:32:26;6.23;;;5.63;;
8656;SDS011;4366;50.764;7.184;2023-02-03T16:37:46;6.77;;;4.93;;
8656;SDS011;4366;50.764;7.184;2023-02-03T16:43:13;6.70;;;5.17;;
8656;SDS011;4366;50.764;7.184;2023-02-03T16:48:34;6.00;;;5.00;;
8656;SDS011;4366;50.764;7.184;2023-02-03T16:53:54;6.50;;;5.77;;
8656;SDS011;4366;50.764;7.184;2023-02-03T16:58:56;10.70;;;6.60;;
8656;SDS011;4366;50.764;7.184;2023-02-03T17:03:58;9.80;;;7.27;;
8656;SDS011;4366;50.764;7.184;2023-02-03T17:09:03;9.47;;;6.07;;
8656;SDS011;4366;50.764;7.184;2023-02-03T17:14:04;7.50;;;4.17;;
8656;SDS011;4366;50.764;7.184;2023-02-03T17:19:09;5.97;;;4.60;;
8656;SDS011;4366;50.764;7.184;2023-02-03T17:24:18;13.57;;;3.73;;
8656;SDS011;4366;50.764;7.184;2023-02-03T17:29:20;4.03;;;2.97;;
8656;SDS011;4366;50.764;7.184;2023-02-03T17:34:22;7.87;;;3.67;;
8656;SDS011;4366;50.764;7.184;2023-02-03T17:39:24;9.37;;;3.50;;
8656;SDS011;4366;50.764;7.184;2023-02-03T17:44:43;10.40;;;3.70;;
8656;SDS011;4366;50.764;7.184;2023-02-03T17:50:02;6.53;;;3.30;;
8656;SDS011;4366;50.764;7.184;2023-02-03T17:55:23;5.70;;;3.33;;
8656;SDS011;4366;50.764;7.184;2023-02-03T18:00:25;8.87;;;3.43;;
8656;SDS011;4366;50.764;7.184;2023-02-03T18:05:27;5.43;;;2.80;;
8656;SDS011;4366;50.764;7.184;2023-02-03T18:10:29;12.07;;;2.90;;
8656;SDS011;4366;50.764;7.184;2023-02-03T18:15:31;11.40;;;2.53;;
8656;SDS011;4366;50.764;7.184;2023-02-03T18:20:33;6.23;;;3.20;;
8656;SDS011;4366;50.764;7.184;2023-02-03T18:25:35;8.20;;;3.30;;
8656;SDS011;4366;50.764;7.184;2023-02-03T18:30:36;5.57;;;2.83;;
8656;SDS011;4366;50.764;7.184;2023-02-03T18:35:38;8.67;;;3.13;;
8656;SDS011;4366;50.764;7.184;2023-02-03T18:40:40;7.40;;;2.83;;
8656;SDS011;4366;50.764;7.184;2023-02-03T18:45:41;7.67;;;2.83;;
8656;SDS011;4366;50.764;7.184;2023-02-03T18:50:43;5.87;;;2.93;;
8656;SDS011;4366;50.764;7.184;2023-02-03T18:55:45;8.83;;;2.80;;
8656;SDS011;4366;50.764;7.184;2023-02-03T19:00:46;5.93;;;2.80;;
8656;SDS011;4366;50.764;7.184;2023-02-03T19:05:48;7.13;;;3.23;;
8656;SDS011;4366;50.764;7.184;2023-02-03T19:10:51;12.00;;;2.60;;
8656;SDS011;4366;50.764;7.184;2023-02-03T19:15:54;9.73;;;3.10;;
8656;SDS011;4366;50.764;7.184;2023-02-03T19:20:55;15.30;;;3.63;;
8656;SDS011;4366;50.764;7.184;2023-02-03T19:25:57;12.77;;;4.30;;
8656;SDS011;4366;50.764;7.184;2023-02-03T19:31:06;10.00;;;3.43;;
8656;SDS011;4366;50.764;7.184;2023-02-03T19:36:12;9.47;;;4.07;;
8656;SDS011;4366;50.764;7.184;2023-02-03T19:41:14;7.47;;;3.43;;
8656;SDS011;4366;50.764;7.184;2023-02-03T19:46:16;5.33;;;3.30;;
8656;SDS011;4366;50.764;7.184;2023-02-03T19:51:18;7.90;;;4.60;;
8656;SDS011;4366;50.764;7.184;2023-02-03T19:56:20;13.30;;;4.83;;
8656;SDS011;4366;50.764;7.184;2023-02-03T20:01:22;9.57;;;4.73;;
8656;SDS011;4366;50.764;7.184;2023-02-03T20:06:25;7.80;;;4.73;;
8656;SDS011;4366;50.764;7.184;2023-02-03T20:11:27;10.27;;;5.83;;
8656;SDS011;4366;50.764;7.184;2023-02-03T20:16:29;9.23;;;5.43;;
8656;SDS011;4366;50.764;7.184;2023-02-03T20:21:31;11.93;;;6.37;;
8656;SDS011;4366;50.764;7.184;2023-02-03T20:26:32;15.13;;;7.35;;
8656;SDS011;4366;50.764;7.184;2023-02-03T20:31:34;10.27;;;6.27;;
8656;SDS011;4366;50.764;7.184;2023-02-03T20:36:36;12.13;;;5.63;;
8656;SDS011;4366;50.764;7.184;2023-02-03T20:41:38;8.37;;;5.60;;
8656;SDS011;4366;50.764;7.184;2023-02-03T20:46:40;8.40;;;6.00;;
8656;SDS011;4366;50.764;7.184;2023-02-03T20:51:41;13.37;;;6.13;;
8656;SDS011;4366;50.764;7.184;2023-02-03T20:56:43;12.13;;;6.00;;
8656;SDS011;4366;50.764;7.184;2023-02-03T21:01:45;8.00;;;5.10;;
8656;SDS011;4366;50.764;7.184;2023-02-03T21:06:47;8.33;;;5.43;;
8656;SDS011;4366;50.764;7.184;2023-02-03T21:11:50;7.10;;;4.07;;
8656;SDS011;4366;50.764;7.184;2023-02-03T21:16:52;8.77;;;3.80;;
8656;SDS011;4366;50.764;7.184;2023-02-03T21:21:54;12.40;;;4.03;;
8656;SDS011;4366;50.764;7.184;2023-02-03T21:26:57;13.00;;;3.70;;
8656;SDS011;4366;50.764;7.184;2023-02-03T21:31:59;6.57;;;3.10;;
8656;SDS011;4366;50.764;7.184;2023-02-03T21:47:41;6.73;;;2.83;;
8656;SDS011;4366;50.764;7.184;2023-02-03T21:52:44;7.07;;;2.43;;
8656;SDS011;4366;50.764;7.184;2023-02-03T21:57:46;11.87;;;2.90;;
8656;SDS011;4366;50.764;7.184;2023-02-03T22:02:54;10.53;;;2.77;;
8656;SDS011;4366;50.764;7.184;2023-02-03T22:07:57;8.87;;;2.50;;
8656;SDS011;4366;50.764;7.184;2023-02-03T22:12:58;9.70;;;2.70;;
8656;SDS011;4366;50.764;7.184;2023-02-03T22:18:00;8.33;;;2.93;;
8656;SDS011;4366;50.764;7.184;2023-02-03T22:23:03;8.77;;;3.20;;
8656;SDS011;4366;50.764;7.184;2023-02-03T22:28:05;11.67;;;3.13;;
8656;SDS011;4366;50.764;7.184;2023-02-03T22:33:06;8.37;;;2.73;;
8656;SDS011;4366;50.764;7.184;2023-02-03T22:38:08;6.43;;;2.33;;
8656;SDS011;4366;50.764;7.184;2023-02-03T22:43:10;8.40;;;2.80;;
8656;SDS011;4366;50.764;7.184;2023-02-03T22:48:12;11.60;;;2.93;;
8656;SDS011;4366;50.764;7.184;2023-02-03T22:53:13;6.63;;;2.97;;
8656;SDS011;4366;50.764;7.184;2023-02-03T22:58:16;8.90;;;2.23;;
8656;SDS011;4366;50.764;7.184;2023-02-03T23:03:17;9.10;;;2.50;;
8656;SDS011;4366;50.764;7.184;2023-02-03T23:08:19;7.17;;;2.70;;
8656;SDS011;4366;50.764;7.184;2023-02-03T23:13:21;9.57;;;2.93;;
8656;SDS011;4366;50.764;7.184;2023-02-03T23:18:23;10.33;;;3.13;;
8656;SDS011;4366;50.764;7.184;2023-02-03T23:23:24;9.30;;;2.80;;
8656;SDS011;4366;50.764;7.184;2023-02-03T23:28:27;9.03;;;2.50;;
8656;SDS011;4366;50.764;7.184;2023-02-03T23:33:28;11.00;;;3.30;;
8656;SDS011;4366;50.764;7.184;2023-02-03T23:38:30;9.17;;;2.73;;
8656;SDS011;4366;50.764;7.184;2023-02-03T23:43:33;8.77;;;2.63;;
8656;SDS011;4366;50.764;7.184;2023-02-03T23:48:35;10.03;;;3.00;;
8656;SDS011;4366;50.764;7.184;2023-02-03T23:53:36;7.23;;;2.37;;
8656;SDS011;4366;50.764;7.184;2023-02-03T23:58:38;12.17;;;3.03;;
